sensor_id;sensor_type;location;lat;lon;timestamp;temperature;humidity
10431;DHT22;5262;59.958;17.726;2022-12-07T00:01:47;-8.20;99.90
10431;DHT22;5262;59.958;17.726;2022-12-07T00:04:14;-8.20;99.90
10431;DHT22;5262;59.958;17.726;2022-12-07T00:06:45;-8.20;99.90
10431;DHT22;5262;59.958;17.726;2022-12-07T00:09:13;-8.20;99.90
10431;DHT22;5262;59.958;17.726;2022-12-07T00:11:39;-8.20;99.90
10431;DHT22;5262;59.958;17.726;2022-12-07T00:14:07;-8.20;99.90
10431;DHT22;5262;59.958;17.726;2022-12-07T00:16:34;-8.20;99.90
10431;DHT22;5262;59.958;17.726;2022-12-07T00:19:00;-8.20;99.90
10431;DHT22;5262;59.958;17.726;2022-12-07T00:21:28;-8.30;99.90
10431;DHT22;5262;59.958;17.726;2022-12-07T00:23:55;-8.30;99.90
10431;DHT22;5262;59.958;17.726;2022-12-07T00:26:36;-8.30;99.90
10431;DHT22;5262;59.958;17.726;2022-12-07T00:29:12;-8.30;99.90
10431;DHT22;5262;59.958;17.726;2022-12-07T00:31:38;-8.40;99.90
10431;DHT22;5262;59.958;17.726;2022-12-07T00:34:04;-8.40;99.90
10431;DHT22;5262;59.958;17.726;2022-12-07T00:36:30;-8.40;99.90
10431;DHT22;5262;59.958;17.726;2022-12-07T00:38:58;-8.40;99.90
10431;DHT22;5262;59.958;17.726;2022-12-07T00:41:25;-8.40;99.90
10431;DHT22;5262;59.958;17.726;2022-12-07T00:43:52;-8.40;99.90
10431;DHT22;5262;59.958;17.726;2022-12-07T00:46:18;-8.40;99.90
10431;DHT22;5262;59.958;17.726;2022-12-07T00:48:45;-8.50;99.90
10431;DHT22;5262;59.958;17.726;2022-12-07T00:51:12;-8.50;99.90
10431;DHT22;5262;59.958;17.726;2022-12-07T00:53:38;-8.50;99.90
10431;DHT22;5262;59.958;17.726;2022-12-07T00:56:10;-8.60;99.90
10431;DHT22;5262;59.958;17.726;2022-12-07T00:58:36;-8.50;99.90
10431;DHT22;5262;59.958;17.726;2022-12-07T01:01:03;-8.60;99.90
10431;DHT22;5262;59.958;17.726;2022-12-07T01:03:29;-8.60;99.90
10431;DHT22;5262;59.958;17.726;2022-12-07T01:05:55;-8.60;99.90
10431;DHT22;5262;59.958;17.726;2022-12-07T01:08:22;-8.60;99.90
10431;DHT22;5262;59.958;17.726;2022-12-07T01:10:48;-8.70;99.90
10431;DHT22;5262;59.958;17.726;2022-12-07T01:13:14;-8.70;99.90
10431;DHT22;5262;59.958;17.726;2022-12-07T01:15:44;-8.70;99.90
10431;DHT22;5262;59.958;17.726;2022-12-07T01:18:10;-8.70;99.90
10431;DHT22;5262;59.958;17.726;2022-12-07T01:20:37;-8.70;99.90
10431;DHT22;5262;59.958;17.726;2022-12-07T01:23:03;-8.80;99.90
10431;DHT22;5262;59.958;17.726;2022-12-07T01:25:29;-8.80;99.90
10431;DHT22;5262;59.958;17.726;2022-12-07T01:27:54;-8.80;99.90
10431;DHT22;5262;59.958;17.726;2022-12-07T01:30:20;-8.80;99.90
10431;DHT22;5262;59.958;17.726;2022-12-07T01:32:45;-8.70;99.90
10431;DHT22;5262;59.958;17.726;2022-12-07T01:35:11;-8.70;99.90
10431;DHT22;5262;59.958;17.726;2022-12-07T01:37:38;-8.60;99.90
10431;DHT22;5262;59.958;17.726;2022-12-07T01:40:08;-8.60;99.90
10431;DHT22;5262;59.958;17.726;2022-12-07T01:42:34;-8.60;99.90
10431;DHT22;5262;59.958;17.726;2022-12-07T01:47:47;-8.50;99.90
10431;DHT22;5262;59.958;17.726;2022-12-07T01:50:14;-8.50;99.90
10431;DHT22;5262;59.958;17.726;2022-12-07T01:52:40;-8.50;99.90
10431;DHT22;5262;59.958;17.726;2022-12-07T01:55:10;-8.50;99.90
10431;DHT22;5262;59.958;17.726;2022-12-07T01:57:41;-8.50;99.90
10431;DHT22;5262;59.958;17.726;2022-12-07T02:00:09;-8.50;99.90
10431;DHT22;5262;59.958;17.726;2022-12-07T02:02:41;-8.50;99.90
10431;DHT22;5262;59.958;17.726;2022-12-07T02:05:08;-8.50;99.90
10431;DHT22;5262;59.958;17.726;2022-12-07T02:07:36;-8.50;99.90
10431;DHT22;5262;59.958;17.726;2022-12-07T02:12:38;-8.60;99.90
10431;DHT22;5262;59.958;17.726;2022-12-07T02:15:04;-8.50;99.90
10431;DHT22;5262;59.958;17.726;2022-12-07T02:20:13;-8.60;99.90
10431;DHT22;5262;59.958;17.726;2022-12-07T02:30:35;-8.70;99.90
10431;DHT22;5262;59.958;17.726;2022-12-07T02:33:16;-8.70;99.90
10431;DHT22;5262;59.958;17.726;2022-12-07T02:36:06;-8.60;99.90
10431;DHT22;5262;59.958;17.726;2022-12-07T02:38:47;-8.60;99.90
10431;DHT22;5262;59.958;17.726;2022-12-07T02:44:02;-8.40;99.90
10431;DHT22;5262;59.958;17.726;2022-12-07T02:46:43;-8.40;99.90
10431;DHT22;5262;59.958;17.726;2022-12-07T02:49:10;-8.30;99.90
10431;DHT22;5262;59.958;17.726;2022-12-07T02:51:41;-8.30;99.90
10431;DHT22;5262;59.958;17.726;2022-12-07T02:54:19;-8.30;99.90
10431;DHT22;5262;59.958;17.726;2022-12-07T03:05:01;-8.20;99.90
10431;DHT22;5262;59.958;17.726;2022-12-07T03:08:26;-8.20;99.90
10431;DHT22;5262;59.958;17.726;2022-12-07T03:14:22;-8.20;99.90
10431;DHT22;5262;59.958;17.726;2022-12-07T03:16:44;-8.10;99.90
10431;DHT22;5262;59.958;17.726;2022-12-07T03:19:14;-8.10;99.90
10431;DHT22;5262;59.958;17.726;2022-12-07T03:21:44;-8.10;99.90
10431;DHT22;5262;59.958;17.726;2022-12-07T03:24:17;-8.10;99.90
10431;DHT22;5262;59.958;17.726;2022-12-07T03:26:50;-8.10;99.90
10431;DHT22;5262;59.958;17.726;2022-12-07T03:29:41;-8.10;99.90
10431;DHT22;5262;59.958;17.726;2022-12-07T03:32:36;-8.10;99.90
10431;DHT22;5262;59.958;17.726;2022-12-07T03:35:17;-8.10;99.90
10431;DHT22;5262;59.958;17.726;2022-12-07T03:37:55;-8.10;99.90
10431;DHT22;5262;59.958;17.726;2022-12-07T03:40:31;-8.00;99.90
10431;DHT22;5262;59.958;17.726;2022-12-07T03:42:59;-8.00;99.90
10431;DHT22;5262;59.958;17.726;2022-12-07T03:45:40;-7.90;99.90
10431;DHT22;5262;59.958;17.726;2022-12-07T03:48:27;-7.80;99.90
10431;DHT22;5262;59.958;17.726;2022-12-07T03:54:05;-7.80;99.90
10431;DHT22;5262;59.958;17.726;2022-12-07T03:56:33;-7.80;99.90
10431;DHT22;5262;59.958;17.726;2022-12-07T03:58:59;-7.70;99.90
10431;DHT22;5262;59.958;17.726;2022-12-07T04:01:25;-7.70;99.90
10431;DHT22;5262;59.958;17.726;2022-12-07T04:03:51;-7.80;99.90
10431;DHT22;5262;59.958;17.726;2022-12-07T04:06:17;-7.80;99.90
10431;DHT22;5262;59.958;17.726;2022-12-07T04:08:42;-7.80;99.90
10431;DHT22;5262;59.958;17.726;2022-12-07T04:11:08;-7.80;99.90
10431;DHT22;5262;59.958;17.726;2022-12-07T04:13:34;-7.70;99.90
10431;DHT22;5262;59.958;17.726;2022-12-07T04:16:19;-7.80;99.90
10431;DHT22;5262;59.958;17.726;2022-12-07T04:18:45;-7.70;99.90
10431;DHT22;5262;59.958;17.726;2022-12-07T04:21:11;-7.70;99.90
10431;DHT22;5262;59.958;17.726;2022-12-07T04:23:37;-7.60;99.90
10431;DHT22;5262;59.958;17.726;2022-12-07T04:26:02;-7.60;99.90
10431;DHT22;5262;59.958;17.726;2022-12-07T04:28:28;-7.70;99.90
10431;DHT22;5262;59.958;17.726;2022-12-07T04:30:53;-7.70;99.90
10431;DHT22;5262;59.958;17.726;2022-12-07T04:33:19;-7.70;99.90
10431;DHT22;5262;59.958;17.726;2022-12-07T04:35:44;-7.70;99.90
10431;DHT22;5262;59.958;17.726;2022-12-07T04:38:10;-7.70;99.90
10431;DHT22;5262;59.958;17.726;2022-12-07T04:40:36;-7.80;99.90
10431;DHT22;5262;59.958;17.726;2022-12-07T04:43:01;-7.80;99.90
10431;DHT22;5262;59.958;17.726;2022-12-07T04:45:27;-7.80;99.90
10431;DHT22;5262;59.958;17.726;2022-12-07T04:47:52;-7.90;99.90
10431;DHT22;5262;59.958;17.726;2022-12-07T04:50:18;-7.90;99.90
10431;DHT22;5262;59.958;17.726;2022-12-07T04:52:44;-8.00;99.90
10431;DHT22;5262;59.958;17.726;2022-12-07T04:55:09;-8.00;99.90
10431;DHT22;5262;59.958;17.726;2022-12-07T04:57:35;-8.00;99.90
10431;DHT22;5262;59.958;17.726;2022-12-07T05:00:00;-8.10;99.90
10431;DHT22;5262;59.958;17.726;2022-12-07T05:02:26;-8.10;99.90
10431;DHT22;5262;59.958;17.726;2022-12-07T05:04:51;-8.20;99.90
10431;DHT22;5262;59.958;17.726;2022-12-07T05:07:17;-8.30;99.90
10431;DHT22;5262;59.958;17.726;2022-12-07T05:09:43;-8.30;99.90
10431;DHT22;5262;59.958;17.726;2022-12-07T05:12:08;-8.30;99.90
10431;DHT22;5262;59.958;17.726;2022-12-07T05:14:34;-8.40;99.90
10431;DHT22;5262;59.958;17.726;2022-12-07T05:16:59;-8.40;99.90
10431;DHT22;5262;59.958;17.726;2022-12-07T05:19:25;-8.40;99.90
10431;DHT22;5262;59.958;17.726;2022-12-07T05:21:51;-8.40;99.90
10431;DHT22;5262;59.958;17.726;2022-12-07T05:24:17;-8.50;99.90
10431;DHT22;5262;59.958;17.726;2022-12-07T05:26:44;-8.50;99.90
10431;DHT22;5262;59.958;17.726;2022-12-07T05:29:12;-8.50;99.90
10431;DHT22;5262;59.958;17.726;2022-12-07T05:31:38;-8.60;99.90
10431;DHT22;5262;59.958;17.726;2022-12-07T05:34:03;-8.60;99.90
10431;DHT22;5262;59.958;17.726;2022-12-07T05:36:29;-8.60;99.90
10431;DHT22;5262;59.958;17.726;2022-12-07T05:38:57;-8.60;99.90
10431;DHT22;5262;59.958;17.726;2022-12-07T05:41:23;-8.70;99.90
10431;DHT22;5262;59.958;17.726;2022-12-07T05:44:07;-8.70;99.90
10431;DHT22;5262;59.958;17.726;2022-12-07T05:46:33;-8.70;99.90
10431;DHT22;5262;59.958;17.726;2022-12-07T05:48:59;-8.80;99.90
10431;DHT22;5262;59.958;17.726;2022-12-07T05:51:24;-8.80;99.90
10431;DHT22;5262;59.958;17.726;2022-12-07T05:53:50;-8.80;99.90
10431;DHT22;5262;59.958;17.726;2022-12-07T05:56:16;-8.90;99.90
10431;DHT22;5262;59.958;17.726;2022-12-07T05:58:41;-8.90;99.90
10431;DHT22;5262;59.958;17.726;2022-12-07T06:01:26;-8.90;99.90
10431;DHT22;5262;59.958;17.726;2022-12-07T06:03:51;-8.90;99.90
10431;DHT22;5262;59.958;17.726;2022-12-07T06:06:17;-8.90;99.90
10431;DHT22;5262;59.958;17.726;2022-12-07T06:08:43;-8.90;99.90
10431;DHT22;5262;59.958;17.726;2022-12-07T06:11:08;-8.90;99.90
10431;DHT22;5262;59.958;17.726;2022-12-07T06:13:52;-8.90;99.90
10431;DHT22;5262;59.958;17.726;2022-12-07T06:16:18;-8.90;99.90
10431;DHT22;5262;59.958;17.726;2022-12-07T06:18:44;-8.70;99.90
10431;DHT22;5262;59.958;17.726;2022-12-07T06:21:09;-8.70;99.90
10431;DHT22;5262;59.958;17.726;2022-12-07T06:23:35;-8.70;99.90
10431;DHT22;5262;59.958;17.726;2022-12-07T06:26:00;-8.70;99.90
10431;DHT22;5262;59.958;17.726;2022-12-07T06:28:26;-8.70;99.90
10431;DHT22;5262;59.958;17.726;2022-12-07T06:30:59;-8.70;99.90
10431;DHT22;5262;59.958;17.726;2022-12-07T06:33:25;-8.70;99.90
10431;DHT22;5262;59.958;17.726;2022-12-07T06:35:50;-8.80;99.90
10431;DHT22;5262;59.958;17.726;2022-12-07T06:38:16;-8.80;99.90
10431;DHT22;5262;59.958;17.726;2022-12-07T06:40:42;-8.90;99.90
10431;DHT22;5262;59.958;17.726;2022-12-07T06:43:07;-8.90;99.90
10431;DHT22;5262;59.958;17.726;2022-12-07T06:45:33;-9.00;99.90
10431;DHT22;5262;59.958;17.726;2022-12-07T06:47:59;-9.00;99.90
10431;DHT22;5262;59.958;17.726;2022-12-07T06:50:24;-9.00;99.90
10431;DHT22;5262;59.958;17.726;2022-12-07T06:52:51;-9.00;99.90
10431;DHT22;5262;59.958;17.726;2022-12-07T06:55:17;-9.00;99.90
10431;DHT22;5262;59.958;17.726;2022-12-07T06:57:42;-8.90;99.90
10431;DHT22;5262;59.958;17.726;2022-12-07T07:00:08;-8.90;99.90
10431;DHT22;5262;59.958;17.726;2022-12-07T07:02:34;-8.80;99.90
10431;DHT22;5262;59.958;17.726;2022-12-07T07:05:00;-8.80;99.90
10431;DHT22;5262;59.958;17.726;2022-12-07T07:07:26;-8.80;99.90
10431;DHT22;5262;59.958;17.726;2022-12-07T07:09:51;-8.90;99.90
10431;DHT22;5262;59.958;17.726;2022-12-07T07:12:17;-8.90;99.90
10431;DHT22;5262;59.958;17.726;2022-12-07T07:14:43;-9.00;99.90
10431;DHT22;5262;59.958;17.726;2022-12-07T07:17:08;-8.90;99.90
10431;DHT22;5262;59.958;17.726;2022-12-07T07:19:34;-8.90;99.90
10431;DHT22;5262;59.958;17.726;2022-12-07T07:21:59;-8.90;99.90
10431;DHT22;5262;59.958;17.726;2022-12-07T07:24:25;-8.90;99.90
10431;DHT22;5262;59.958;17.726;2022-12-07T07:26:51;-8.90;99.90
10431;DHT22;5262;59.958;17.726;2022-12-07T07:29:17;-8.80;99.90
10431;DHT22;5262;59.958;17.726;2022-12-07T07:31:42;-8.80;99.90
10431;DHT22;5262;59.958;17.726;2022-12-07T07:34:08;-8.80;99.90
10431;DHT22;5262;59.958;17.726;2022-12-07T07:36:34;-8.80;99.90
10431;DHT22;5262;59.958;17.726;2022-12-07T07:38:59;-8.80;99.90
10431;DHT22;5262;59.958;17.726;2022-12-07T07:41:25;-8.80;99.90
10431;DHT22;5262;59.958;17.726;2022-12-07T07:43:50;-8.80;99.90
10431;DHT22;5262;59.958;17.726;2022-12-07T07:46:16;-8.80;99.90
10431;DHT22;5262;59.958;17.726;2022-12-07T07:48:41;-8.80;99.90
10431;DHT22;5262;59.958;17.726;2022-12-07T07:51:07;-8.70;99.90
10431;DHT22;5262;59.958;17.726;2022-12-07T07:53:33;-8.70;99.90
10431;DHT22;5262;59.958;17.726;2022-12-07T07:55:59;-8.80;99.90
10431;DHT22;5262;59.958;17.726;2022-12-07T07:58:25;-8.80;99.90
10431;DHT22;5262;59.958;17.726;2022-12-07T08:00:51;-8.90;99.90
10431;DHT22;5262;59.958;17.726;2022-12-07T08:03:17;-8.80;99.90
10431;DHT22;5262;59.958;17.726;2022-12-07T08:05:43;-8.70;99.90
10431;DHT22;5262;59.958;17.726;2022-12-07T08:08:08;-8.70;99.90
10431;DHT22;5262;59.958;17.726;2022-12-07T08:10:34;-8.80;99.90
10431;DHT22;5262;59.958;17.726;2022-12-07T08:13:01;-8.80;99.90
10431;DHT22;5262;59.958;17.726;2022-12-07T08:15:41;-8.80;99.90
10431;DHT22;5262;59.958;17.726;2022-12-07T08:18:07;-8.80;99.90
10431;DHT22;5262;59.958;17.726;2022-12-07T08:20:35;-8.80;99.90
10431;DHT22;5262;59.958;17.726;2022-12-07T08:23:01;-8.80;99.90
10431;DHT22;5262;59.958;17.726;2022-12-07T08:25:28;-8.80;99.90
10431;DHT22;5262;59.958;17.726;2022-12-07T08:27:54;-8.80;99.90
10431;DHT22;5262;59.958;17.726;2022-12-07T08:30:20;-8.80;99.90
10431;DHT22;5262;59.958;17.726;2022-12-07T08:32:46;-8.80;99.90
10431;DHT22;5262;59.958;17.726;2022-12-07T08:35:13;-8.80;99.90
10431;DHT22;5262;59.958;17.726;2022-12-07T08:37:39;-8.80;99.90
10431;DHT22;5262;59.958;17.726;2022-12-07T08:40:06;-8.80;99.90
10431;DHT22;5262;59.958;17.726;2022-12-07T08:42:32;-8.80;99.90
10431;DHT22;5262;59.958;17.726;2022-12-07T08:45:07;-8.80;99.90
10431;DHT22;5262;59.958;17.726;2022-12-07T08:50:16;-8.90;99.90
10431;DHT22;5262;59.958;17.726;2022-12-07T08:52:43;-8.90;99.90
10431;DHT22;5262;59.958;17.726;2022-12-07T08:55:12;-8.90;99.90
10431;DHT22;5262;59.958;17.726;2022-12-07T08:57:38;-8.90;99.90
10431;DHT22;5262;59.958;17.726;2022-12-07T09:00:05;-9.00;99.90
10431;DHT22;5262;59.958;17.726;2022-12-07T09:02:31;-8.90;99.90
10431;DHT22;5262;59.958;17.726;2022-12-07T09:04:57;-8.90;99.90
10431;DHT22;5262;59.958;17.726;2022-12-07T09:07:23;-9.00;99.90
10431;DHT22;5262;59.958;17.726;2022-12-07T09:09:49;-8.90;99.90
10431;DHT22;5262;59.958;17.726;2022-12-07T09:12:15;-9.00;99.90
10431;DHT22;5262;59.958;17.726;2022-12-07T09:14:40;-9.00;99.90
10431;DHT22;5262;59.958;17.726;2022-12-07T09:17:07;-9.00;99.90
10431;DHT22;5262;59.958;17.726;2022-12-07T09:19:33;-9.00;99.90
10431;DHT22;5262;59.958;17.726;2022-12-07T09:21:59;-9.00;99.90
10431;DHT22;5262;59.958;17.726;2022-12-07T09:24:24;-9.00;99.90
10431;DHT22;5262;59.958;17.726;2022-12-07T09:26:50;-9.10;99.90
10431;DHT22;5262;59.958;17.726;2022-12-07T09:29:16;-9.00;99.90
10431;DHT22;5262;59.958;17.726;2022-12-07T09:31:41;-9.00;99.90
10431;DHT22;5262;59.958;17.726;2022-12-07T09:34:07;-9.00;99.90
10431;DHT22;5262;59.958;17.726;2022-12-07T09:36:32;-9.10;99.90
10431;DHT22;5262;59.958;17.726;2022-12-07T09:38:58;-9.00;99.90
10431;DHT22;5262;59.958;17.726;2022-12-07T09:41:25;-9.00;99.90
10431;DHT22;5262;59.958;17.726;2022-12-07T09:43:53;-9.00;99.90
10431;DHT22;5262;59.958;17.726;2022-12-07T09:46:22;-9.00;99.90
10431;DHT22;5262;59.958;17.726;2022-12-07T09:48:49;-9.00;99.90
10431;DHT22;5262;59.958;17.726;2022-12-07T09:51:21;-8.90;99.90
10431;DHT22;5262;59.958;17.726;2022-12-07T09:53:47;-8.90;99.90
10431;DHT22;5262;59.958;17.726;2022-12-07T09:56:15;-8.80;99.90
10431;DHT22;5262;59.958;17.726;2022-12-07T09:58:41;-8.70;99.90
10431;DHT22;5262;59.958;17.726;2022-12-07T10:03:35;-8.60;99.90
10431;DHT22;5262;59.958;17.726;2022-12-07T10:06:01;-8.60;99.90
10431;DHT22;5262;59.958;17.726;2022-12-07T10:08:27;-8.60;99.90
10431;DHT22;5262;59.958;17.726;2022-12-07T10:10:55;-8.60;99.90
10431;DHT22;5262;59.958;17.726;2022-12-07T10:13:42;-8.50;99.90
10431;DHT22;5262;59.958;17.726;2022-12-07T10:16:37;-8.40;99.90
10431;DHT22;5262;59.958;17.726;2022-12-07T10:19:32;-8.30;99.90
10431;DHT22;5262;59.958;17.726;2022-12-07T10:24:29;-8.10;99.90
10431;DHT22;5262;59.958;17.726;2022-12-07T10:26:55;-8.00;99.90
10431;DHT22;5262;59.958;17.726;2022-12-07T10:34:39;-7.90;99.90
10431;DHT22;5262;59.958;17.726;2022-12-07T10:39:46;-7.70;99.90
10431;DHT22;5262;59.958;17.726;2022-12-07T10:42:21;-7.70;99.90
10431;DHT22;5262;59.958;17.726;2022-12-07T10:44:49;-7.60;99.90
10431;DHT22;5262;59.958;17.726;2022-12-07T10:52:39;-6.90;99.90
10431;DHT22;5262;59.958;17.726;2022-12-07T11:07:07;-5.20;99.90
10431;DHT22;5262;59.958;17.726;2022-12-07T11:09:49;-5.70;99.90
10431;DHT22;5262;59.958;17.726;2022-12-07T11:18:11;-6.30;99.90
10431;DHT22;5262;59.958;17.726;2022-12-07T11:26:05;-6.70;99.90
10431;DHT22;5262;59.958;17.726;2022-12-07T11:28:51;-6.80;99.90
10431;DHT22;5262;59.958;17.726;2022-12-07T11:31:29;-6.80;99.90
10431;DHT22;5262;59.958;17.726;2022-12-07T11:36:43;-7.10;99.90
10431;DHT22;5262;59.958;17.726;2022-12-07T11:41:49;-7.20;99.90
10431;DHT22;5262;59.958;17.726;2022-12-07T11:44:34;-7.30;99.90
10431;DHT22;5262;59.958;17.726;2022-12-07T11:47:10;-7.30;99.90
10431;DHT22;5262;59.958;17.726;2022-12-07T11:49:43;-7.30;99.90
10431;DHT22;5262;59.958;17.726;2022-12-07T11:52:22;-7.30;99.90
10431;DHT22;5262;59.958;17.726;2022-12-07T11:54:52;-7.30;99.90
10431;DHT22;5262;59.958;17.726;2022-12-07T11:57:33;-7.30;99.90
10431;DHT22;5262;59.958;17.726;2022-12-07T12:00:04;-7.40;99.90
10431;DHT22;5262;59.958;17.726;2022-12-07T12:05:18;-7.40;99.90
10431;DHT22;5262;59.958;17.726;2022-12-07T12:07:50;-7.40;99.90
10431;DHT22;5262;59.958;17.726;2022-12-07T12:10:22;-7.50;99.90
10431;DHT22;5262;59.958;17.726;2022-12-07T12:13:09;-7.50;99.90
10431;DHT22;5262;59.958;17.726;2022-12-07T12:18:53;-7.60;99.90
10431;DHT22;5262;59.958;17.726;2022-12-07T12:21:30;-7.70;99.90
10431;DHT22;5262;59.958;17.726;2022-12-07T12:24:09;-7.70;99.90
10431;DHT22;5262;59.958;17.726;2022-12-07T12:26:37;-7.70;99.90
10431;DHT22;5262;59.958;17.726;2022-12-07T12:29:06;-7.70;99.90
10431;DHT22;5262;59.958;17.726;2022-12-07T12:31:39;-7.70;99.90
10431;DHT22;5262;59.958;17.726;2022-12-07T12:36:56;-7.80;99.90
10431;DHT22;5262;59.958;17.726;2022-12-07T12:39:23;-7.80;99.90
10431;DHT22;5262;59.958;17.726;2022-12-07T12:41:56;-7.70;99.90
10431;DHT22;5262;59.958;17.726;2022-12-07T12:46:58;-7.80;99.90
10431;DHT22;5262;59.958;17.726;2022-12-07T12:52:00;-7.80;99.90
10431;DHT22;5262;59.958;17.726;2022-12-07T12:54:33;-7.90;99.90
10431;DHT22;5262;59.958;17.726;2022-12-07T12:57:06;-7.90;99.90
10431;DHT22;5262;59.958;17.726;2022-12-07T12:59:36;-7.90;99.90
10431;DHT22;5262;59.958;17.726;2022-12-07T13:04:57;-7.90;99.90
10431;DHT22;5262;59.958;17.726;2022-12-07T13:13:00;-8.00;99.90
10431;DHT22;5262;59.958;17.726;2022-12-07T13:29:13;-8.10;99.90
10431;DHT22;5262;59.958;17.726;2022-12-07T13:31:56;-8.10;99.90
10431;DHT22;5262;59.958;17.726;2022-12-07T13:34:41;-8.10;99.90
10431;DHT22;5262;59.958;17.726;2022-12-07T13:37:27;-8.20;99.90
10431;DHT22;5262;59.958;17.726;2022-12-07T13:42:44;-8.20;99.90
10431;DHT22;5262;59.958;17.726;2022-12-07T13:45:30;-8.30;99.90
10431;DHT22;5262;59.958;17.726;2022-12-07T13:48:24;-8.30;99.90
10431;DHT22;5262;59.958;17.726;2022-12-07T13:50:57;-8.40;99.90
10431;DHT22;5262;59.958;17.726;2022-12-07T13:53:24;-8.50;99.90
10431;DHT22;5262;59.958;17.726;2022-12-07T13:55:50;-8.50;99.90
10431;DHT22;5262;59.958;17.726;2022-12-07T13:58:16;-8.60;99.90
10431;DHT22;5262;59.958;17.726;2022-12-07T14:00:43;-8.60;99.90
10431;DHT22;5262;59.958;17.726;2022-12-07T14:05:38;-8.70;99.90
10431;DHT22;5262;59.958;17.726;2022-12-07T14:10:37;-8.80;99.90
10431;DHT22;5262;59.958;17.726;2022-12-07T14:13:35;-8.90;99.90
10431;DHT22;5262;59.958;17.726;2022-12-07T14:16:26;-9.00;99.90
10431;DHT22;5262;59.958;17.726;2022-12-07T14:18:55;-9.10;99.90
10431;DHT22;5262;59.958;17.726;2022-12-07T14:21:24;-9.10;99.90
10431;DHT22;5262;59.958;17.726;2022-12-07T14:26:41;-9.20;99.90
10431;DHT22;5262;59.958;17.726;2022-12-07T14:29:31;-9.30;99.90
10431;DHT22;5262;59.958;17.726;2022-12-07T14:32:13;-9.40;99.90
10431;DHT22;5262;59.958;17.726;2022-12-07T14:34:53;-9.40;99.90
10431;DHT22;5262;59.958;17.726;2022-12-07T14:37:19;-9.40;99.90
10431;DHT22;5262;59.958;17.726;2022-12-07T14:39:44;-9.50;99.90
10431;DHT22;5262;59.958;17.726;2022-12-07T14:42:11;-9.50;99.90
10431;DHT22;5262;59.958;17.726;2022-12-07T14:44:36;-9.60;99.90
10431;DHT22;5262;59.958;17.726;2022-12-07T14:47:02;-9.60;99.90
10431;DHT22;5262;59.958;17.726;2022-12-07T14:49:28;-9.70;99.90
10431;DHT22;5262;59.958;17.726;2022-12-07T14:51:53;-9.70;99.90
10431;DHT22;5262;59.958;17.726;2022-12-07T14:54:20;-9.80;99.90
10431;DHT22;5262;59.958;17.726;2022-12-07T14:56:47;-9.80;99.90
10431;DHT22;5262;59.958;17.726;2022-12-07T14:59:17;-9.90;99.90
10431;DHT22;5262;59.958;17.726;2022-12-07T15:01:42;-10.00;99.90
10431;DHT22;5262;59.958;17.726;2022-12-07T15:04:08;-10.00;99.90
10431;DHT22;5262;59.958;17.726;2022-12-07T15:06:34;-10.00;99.90
10431;DHT22;5262;59.958;17.726;2022-12-07T15:08:59;-10.00;99.90
10431;DHT22;5262;59.958;17.726;2022-12-07T15:11:25;-10.10;99.90
10431;DHT22;5262;59.958;17.726;2022-12-07T15:13:51;-10.10;99.90
10431;DHT22;5262;59.958;17.726;2022-12-07T15:16:37;-10.10;99.90
10431;DHT22;5262;59.958;17.726;2022-12-07T15:19:05;-10.20;99.90
10431;DHT22;5262;59.958;17.726;2022-12-07T15:21:31;-10.20;99.90
10431;DHT22;5262;59.958;17.726;2022-12-07T15:23:57;-10.20;99.90
10431;DHT22;5262;59.958;17.726;2022-12-07T15:26:22;-10.20;99.90
10431;DHT22;5262;59.958;17.726;2022-12-07T15:28:48;-10.30;99.90
10431;DHT22;5262;59.958;17.726;2022-12-07T15:31:14;-10.30;99.90
10431;DHT22;5262;59.958;17.726;2022-12-07T15:33:40;-10.30;99.90
10431;DHT22;5262;59.958;17.726;2022-12-07T15:36:06;-10.30;99.90
10431;DHT22;5262;59.958;17.726;2022-12-07T15:38:32;-10.30;99.90
10431;DHT22;5262;59.958;17.726;2022-12-07T15:40:58;-10.30;99.90
10431;DHT22;5262;59.958;17.726;2022-12-07T15:43:23;-10.40;99.90
10431;DHT22;5262;59.958;17.726;2022-12-07T15:46:08;-10.40;99.90
10431;DHT22;5262;59.958;17.726;2022-12-07T15:48:33;-10.30;99.90
10431;DHT22;5262;59.958;17.726;2022-12-07T15:51:06;-10.30;99.90
10431;DHT22;5262;59.958;17.726;2022-12-07T15:53:33;-10.30;99.90
10431;DHT22;5262;59.958;17.726;2022-12-07T15:55:59;-10.30;99.90
10431;DHT22;5262;59.958;17.726;2022-12-07T15:58:25;-10.30;99.90
10431;DHT22;5262;59.958;17.726;2022-12-07T16:00:51;-10.30;99.90
10431;DHT22;5262;59.958;17.726;2022-12-07T16:03:17;-10.30;99.90
10431;DHT22;5262;59.958;17.726;2022-12-07T16:05:51;-10.40;99.90
10431;DHT22;5262;59.958;17.726;2022-12-07T16:08:17;-10.30;99.90
10431;DHT22;5262;59.958;17.726;2022-12-07T16:10:43;-10.30;99.90
10431;DHT22;5262;59.958;17.726;2022-12-07T16:13:10;-10.40;99.90
10431;DHT22;5262;59.958;17.726;2022-12-07T16:15:42;-10.30;99.90
10431;DHT22;5262;59.958;17.726;2022-12-07T16:18:09;-10.40;99.90
10431;DHT22;5262;59.958;17.726;2022-12-07T16:20:35;-10.40;99.90
10431;DHT22;5262;59.958;17.726;2022-12-07T16:23:00;-10.30;99.90
10431;DHT22;5262;59.958;17.726;2022-12-07T16:25:27;-10.30;99.90
10431;DHT22;5262;59.958;17.726;2022-12-07T16:27:52;-10.20;99.90
10431;DHT22;5262;59.958;17.726;2022-12-07T16:30:19;-10.20;99.90
10431;DHT22;5262;59.958;17.726;2022-12-07T16:32:45;-10.20;99.90
10431;DHT22;5262;59.958;17.726;2022-12-07T16:35:10;-10.20;99.90
10431;DHT22;5262;59.958;17.726;2022-12-07T16:37:37;-10.20;99.90
10431;DHT22;5262;59.958;17.726;2022-12-07T16:40:03;-10.10;99.90
10431;DHT22;5262;59.958;17.726;2022-12-07T16:42:33;-10.10;99.90
10431;DHT22;5262;59.958;17.726;2022-12-07T16:45:00;-10.10;99.90
10431;DHT22;5262;59.958;17.726;2022-12-07T16:47:26;-10.20;99.90
10431;DHT22;5262;59.958;17.726;2022-12-07T16:49:51;-10.20;99.90
10431;DHT22;5262;59.958;17.726;2022-12-07T16:52:18;-10.10;99.90
10431;DHT22;5262;59.958;17.726;2022-12-07T16:54:44;-10.20;99.90
10431;DHT22;5262;59.958;17.726;2022-12-07T16:57:10;-10.20;99.90
10431;DHT22;5262;59.958;17.726;2022-12-07T16:59:36;-10.20;99.90
10431;DHT22;5262;59.958;17.726;2022-12-07T17:02:01;-10.20;99.90
10431;DHT22;5262;59.958;17.726;2022-12-07T17:04:27;-10.20;99.90
10431;DHT22;5262;59.958;17.726;2022-12-07T17:06:53;-10.20;99.90
10431;DHT22;5262;59.958;17.726;2022-12-07T17:09:19;-10.10;99.90
10431;DHT22;5262;59.958;17.726;2022-12-07T17:11:45;-10.20;99.90
10431;DHT22;5262;59.958;17.726;2022-12-07T17:14:11;-10.20;99.90
10431;DHT22;5262;59.958;17.726;2022-12-07T17:16:55;-10.20;99.90
10431;DHT22;5262;59.958;17.726;2022-12-07T17:19:20;-10.20;99.90
10431;DHT22;5262;59.958;17.726;2022-12-07T17:21:46;-10.20;99.90
10431;DHT22;5262;59.958;17.726;2022-12-07T17:24:14;-10.20;99.90
10431;DHT22;5262;59.958;17.726;2022-12-07T17:26:40;-10.30;99.90
10431;DHT22;5262;59.958;17.726;2022-12-07T17:29:07;-10.30;99.90
10431;DHT22;5262;59.958;17.726;2022-12-07T17:31:34;-10.30;99.90
10431;DHT22;5262;59.958;17.726;2022-12-07T17:34:00;-10.30;99.90
10431;DHT22;5262;59.958;17.726;2022-12-07T17:36:28;-10.30;99.90
10431;DHT22;5262;59.958;17.726;2022-12-07T17:38:54;-10.20;99.90
10431;DHT22;5262;59.958;17.726;2022-12-07T17:41:27;-10.20;99.90
10431;DHT22;5262;59.958;17.726;2022-12-07T17:44:17;-10.20;99.90
10431;DHT22;5262;59.958;17.726;2022-12-07T17:46:44;-10.20;99.90
10431;DHT22;5262;59.958;17.726;2022-12-07T17:49:12;-10.10;99.90